Time;durP1;ratioP1;P1;durP2;ratioP2;P2;SDS_P1;SDS_P2;PMS_P1;PMS_P2;Temp;Humidity;BMP_temperature;BMP_pressure;BME280_temperature;BME280_humidity;BME280_pressure;Samples;Min_cycle;Max_cycle;Signal;HPM_P1;HPM_P2
2022/06/25 00:00:35;;;;;;;8.67;7.40;;;23.90;99.90;;;;;;5075261;28;20443;-49
2022/06/25 00:03:02;;;;;;;7.60;6.90;;;23.90;99.90;;;;;;5075424;28;20454;-52
2022/06/25 00:05:32;;;;;;;8.67;7.77;;;23.90;99.90;;;;;;5064463;28;20496;-56
2022/06/25 00:08:00;;;;;;;8.33;7.00;;;23.90;99.90;;;;;;5051342;28;20479;-43
2022/06/25 00:10:28;;;;;;;9.40;8.53;;;24.00;99.90;;;;;;5050491;28;20440;-53
2022/06/25 00:12:54;;;;;;;8.50;7.03;;;23.90;99.90;;;;;;5055379;28;20532;-42
2022/06/25 00:15:21;;;;;;;10.13;9.13;;;23.90;99.90;;;;;;5053621;28;20436;-48
2022/06/25 00:17:47;;;;;;;9.40;8.60;;;23.90;99.90;;;;;;5053177;28;20503;-49
2022/06/25 00:20:14;;;;;;;11.73;8.07;;;23.80;99.90;;;;;;5053460;28;20471;-44
2022/06/25 00:22:41;;;;;;;8.73;7.40;;;23.70;99.90;;;;;;5056037;28;20480;-43
2022/06/25 00:25:09;;;;;;;8.47;7.67;;;23.70;99.90;;;;;;5054903;28;20463;-52
2022/06/25 00:27:37;;;;;;;9.50;8.17;;;23.60;99.90;;;;;;5054519;28;20512;-49
2022/06/25 00:30:05;;;;;;;10.07;8.20;;;23.50;99.90;;;;;;5056180;28;20431;-45
2022/06/25 00:32:31;;;;;;;9.30;8.50;;;23.50;99.90;;;;;;5053064;28;20516;-58
2022/06/25 00:34:58;;;;;;;10.30;9.30;;;23.40;99.90;;;;;;5055931;28;20460;-52
2022/06/25 00:37:25;;;;;;;12.17;9.93;;;23.40;99.90;;;;;;5055709;28;20444;-46
2022/06/25 00:39:52;;;;;;;14.53;11.10;;;23.30;99.90;;;;;;5054337;28;20532;-49
2022/06/25 00:42:19;;;;;;;16.37;13.30;;;23.30;99.90;;;;;;5054103;28;20475;-48
2022/06/25 00:44:47;;;;;;;15.53;14.00;;;23.30;99.90;;;;;;5055501;28;20451;-54
2022/06/25 00:47:15;;;;;;;16.53;14.47;;;23.20;99.90;;;;;;5055438;28;20451;-48
2022/06/25 00:49:42;;;;;;;17.93;16.13;;;23.20;99.90;;;;;;5055095;28;20494;-44
2022/06/25 00:52:12;;;;;;;18.70;16.20;;;23.20;99.90;;;;;;5054778;28;20505;-58
2022/06/25 00:54:40;;;;;;;18.87;16.87;;;23.10;99.90;;;;;;5054283;28;20474;-46
2022/06/25 00:57:08;;;;;;;20.30;18.30;;;23.20;99.90;;;;;;5055026;28;20504;-53
2022/06/25 00:59:38;;;;;;;19.90;16.80;;;23.10;99.90;;;;;;5054174;28;20444;-57
2022/06/25 01:02:09;;;;;;;21.63;19.33;;;23.10;99.90;;;;;;5054967;28;20505;-57
2022/06/25 01:04:37;;;;;;;22.30;19.87;;;23.10;99.90;;;;;;5051949;28;20432;-52
2022/06/25 01:07:04;;;;;;;22.63;19.20;;;23.00;99.90;;;;;;5055305;28;20420;-59
2022/06/25 01:09:32;;;;;;;22.83;20.17;;;23.00;99.90;;;;;;5051324;28;20571;-57
2022/06/25 01:11:59;;;;;;;21.03;18.70;;;23.00;99.90;;;;;;5054724;28;20428;-43
2022/06/25 01:14:25;;;;;;;22.00;19.77;;;23.00;99.90;;;;;;5053419;28;20507;-56
2022/06/25 01:16:52;;;;;;;30.53;18.67;;;23.00;99.90;;;;;;5053782;28;20472;-53
2022/06/25 01:19:20;;;;;;;21.37;18.87;;;23.10;99.90;;;;;;5054002;28;20771;-47
2022/06/25 01:21:50;;;;;;;21.17;17.40;;;23.00;99.90;;;;;;5042991;28;20472;-58
2022/06/25 01:24:18;;;;;;;19.47;16.93;;;23.00;99.90;;;;;;5051302;28;20460;-57
2022/06/25 01:26:45;;;;;;;17.13;15.30;;;23.00;99.90;;;;;;5051554;28;20528;-58
2022/06/25 01:29:12;;;;;;;20.10;14.27;;;23.00;99.90;;;;;;5046556;28;20487;-55
2022/06/25 01:31:39;;;;;;;17.80;14.67;;;23.00;99.90;;;;;;5047276;28;20460;-53
2022/06/25 01:34:12;;;;;;;18.90;14.50;;;23.00;99.90;;;;;;5049286;28;20470;-59
2022/06/25 01:36:38;;;;;;;16.90;14.80;;;23.00;99.90;;;;;;5048106;28;20462;-44
2022/06/25 01:39:08;;;;;;;17.03;14.27;;;23.00;99.90;;;;;;5055136;28;20508;-51
2022/06/25 01:41:40;;;;;;;17.07;13.90;;;23.00;99.90;;;;;;5055298;28;20956;-42
2022/06/25 01:44:06;;;;;;;16.93;14.70;;;22.90;99.90;;;;;;5051375;28;20480;-51
2022/06/25 01:46:33;;;;;;;16.60;14.27;;;22.90;99.90;;;;;;5045165;28;20472;-50
2022/06/25 01:49:00;;;;;;;15.83;12.87;;;22.90;99.90;;;;;;5052987;28;20479;-47
2022/06/25 01:51:27;;;;;;;16.17;14.00;;;22.90;99.90;;;;;;5053768;28;20487;-53
2022/06/25 01:53:55;;;;;;;16.90;14.53;;;22.90;99.90;;;;;;5054235;28;20515;-55
2022/06/25 01:56:24;;;;;;;18.07;13.20;;;22.90;99.90;;;;;;5052970;28;20452;-51
2022/06/25 01:58:52;;;;;;;15.33;13.83;;;22.90;99.90;;;;;;5055117;28;20436;-48
2022/06/25 02:01:19;;;;;;;15.93;14.17;;;22.90;99.90;;;;;;5054298;28;20424;-53
2022/06/25 02:03:45;;;;;;;16.33;14.53;;;22.90;99.90;;;;;;5052883;28;20511;-55
2022/06/25 02:06:12;;;;;;;16.30;14.63;;;22.90;99.90;;;;;;5053531;28;20429;-57
2022/06/25 02:08:39;;;;;;;18.63;16.50;;;22.90;99.90;;;;;;5052761;28;20522;-54
2022/06/25 02:11:08;;;;;;;17.63;14.20;;;22.90;99.90;;;;;;5054815;28;20475;-54
2022/06/25 02:13:35;;;;;;;20.17;15.93;;;22.90;99.90;;;;;;5055168;28;20447;-56
2022/06/25 02:16:05;;;;;;;16.73;15.03;;;22.90;99.90;;;;;;5054086;28;20523;-53
2022/06/25 02:18:34;;;;;;;15.67;14.07;;;22.90;99.90;;;;;;5052161;28;20420;-58
2022/06/25 02:21:01;;;;;;;15.90;14.20;;;22.80;99.90;;;;;;5054095;28;20450;-54
2022/06/25 02:23:28;;;;;;;16.17;14.37;;;22.80;99.90;;;;;;5053244;28;20465;-51
2022/06/25 02:25:58;;;;;;;18.07;16.27;;;22.80;99.90;;;;;;5052604;28;20440;-58
2022/06/25 02:28:24;;;;;;;16.07;14.47;;;22.80;99.90;;;;;;5051689;28;20535;-53
2022/06/25 02:30:51;;;;;;;15.77;13.80;;;22.70;99.90;;;;;;5051781;28;20475;-50
2022/06/25 02:33:19;;;;;;;15.47;13.80;;;22.60;99.90;;;;;;5055118;28;20472;-46
2022/06/25 02:35:49;;;;;;;19.23;15.27;;;22.60;99.90;;;;;;5054785;28;20471;-58
2022/06/25 02:38:26;;;;;;;17.17;14.90;;;22.50;99.90;;;;;;5056567;28;20463;-55
2022/06/25 02:40:53;;;;;;;18.40;13.73;;;22.50;99.90;;;;;;5046316;28;20526;-57
2022/06/25 02:43:20;;;;;;;16.43;14.73;;;22.50;99.90;;;;;;5056871;28;20433;-55
2022/06/25 02:45:47;;;;;;;17.13;15.47;;;22.50;99.90;;;;;;5057197;28;20458;-56
2022/06/25 02:48:14;;;;;;;17.50;15.70;;;22.50;99.90;;;;;;5056789;28;20452;-60
2022/06/25 02:50:42;;;;;;;18.47;16.57;;;22.50;99.90;;;;;;5055439;28;21142;-51
2022/06/25 02:53:09;;;;;;;17.57;15.23;;;22.40;99.90;;;;;;5056964;28;20475;-54
2022/06/25 03:01:04;;;;;;;17.90;16.00;;;22.40;99.90;;;;;;5058004;28;20470;-52
2022/06/25 03:03:31;;;;;;;16.47;14.67;;;22.30;99.90;;;;;;5055424;28;20460;-50
2022/06/25 03:05:59;;;;;;;15.40;13.90;;;22.30;99.90;;;;;;5056403;28;20519;-60
2022/06/25 03:08:26;;;;;;;16.23;14.60;;;22.30;99.90;;;;;;5056043;28;20528;-60
2022/06/25 03:10:53;;;;;;;19.23;16.37;;;22.30;99.90;;;;;;5056589;28;20507;-54
2022/06/25 03:13:20;;;;;;;18.27;15.10;;;22.40;99.90;;;;;;5057949;28;20479;-60
2022/06/25 03:15:51;;;;;;;16.27;14.20;;;22.40;99.90;;;;;;5057937;28;20434;-64
2022/06/25 03:18:18;;;;;;;19.30;13.80;;;22.40;99.90;;;;;;5058445;28;20499;-50
2022/06/25 03:20:45;;;;;;;17.00;15.30;;;22.40;99.90;;;;;;5055856;28;20487;-51
2022/06/25 03:23:16;;;;;;;15.73;13.33;;;22.40;99.90;;;;;;5056590;28;20471;-53
2022/06/25 03:25:44;;;;;;;15.50;14.00;;;22.40;99.90;;;;;;5056683;28;20448;-58
2022/06/25 03:28:11;;;;;;;18.93;15.90;;;22.30;99.90;;;;;;5057420;28;20504;-54
2022/06/25 03:30:41;;;;;;;18.80;14.43;;;22.30;99.90;;;;;;5054185;28;20504;-53
2022/06/25 03:33:09;;;;;;;14.70;13.30;;;22.30;99.90;;;;;;5056843;28;20468;-50
2022/06/25 03:35:36;;;;;;;17.93;14.23;;;22.30;99.90;;;;;;5055857;28;20472;-52
2022/06/25 03:38:03;;;;;;;19.37;15.70;;;22.30;99.90;;;;;;5056905;28;20851;-51
2022/06/25 03:40:31;;;;;;;16.60;14.80;;;22.30;99.90;;;;;;5053149;28;20473;-46
2022/06/25 03:42:59;;;;;;;16.10;14.50;;;22.30;99.90;;;;;;5054482;28;20500;-55
2022/06/25 03:45:26;;;;;;;15.40;13.87;;;22.40;99.90;;;;;;5055256;28;20437;-50
2022/06/25 03:47:53;;;;;;;16.70;13.63;;;22.30;99.90;;;;;;5056130;28;20452;-56
2022/06/25 03:50:22;;;;;;;15.20;13.80;;;22.40;99.90;;;;;;5056248;28;20547;-52
2022/06/25 03:52:50;;;;;;;16.60;12.50;;;22.40;99.90;;;;;;5055466;28;20435;-52
2022/06/25 03:55:24;;;;;;;17.90;13.77;;;22.40;99.90;;;;;;5055784;28;20480;-53
2022/06/25 03:57:52;;;;;;;15.17;13.70;;;22.50;99.90;;;;;;5056313;28;20455;-54
2022/06/25 04:00:19;;;;;;;16.40;14.20;;;22.60;99.90;;;;;;5057157;28;20460;-49
2022/06/25 04:02:46;;;;;;;15.30;13.60;;;22.60;99.90;;;;;;5055145;28;20463;-48
2022/06/25 04:05:12;;;;;;;15.13;13.63;;;22.60;99.90;;;;;;5055071;28;20432;-53
2022/06/25 04:07:39;;;;;;;15.73;13.40;;;22.60;99.90;;;;;;5055560;28;20483;-52
2022/06/25 04:10:10;;;;;;;17.77;15.97;;;22.70;99.90;;;;;;5057044;28;20624;-57
2022/06/25 04:12:37;;;;;;;16.33;14.70;;;22.70;99.90;;;;;;5055541;28;20428;-54
2022/06/25 04:15:06;;;;;;;16.47;14.97;;;22.70;99.90;;;;;;5054471;28;20500;-61
2022/06/25 04:17:33;;;;;;;16.03;14.17;;;22.70;99.90;;;;;;5055125;28;20507;-55
2022/06/25 04:20:00;;;;;;;13.03;11.90;;;22.80;99.90;;;;;;5046743;28;20579;-58
2022/06/25 04:22:30;;;;;;;15.80;14.13;;;22.80;99.90;;;;;;5052408;28;20475;-52
2022/06/25 04:24:57;;;;;;;17.20;14.37;;;22.80;99.90;;;;;;5056247;28;20452;-48
2022/06/25 04:30:11;;;;;;;15.03;13.53;;;22.90;99.90;;;;;;5054033;28;20471;-58
2022/06/25 04:32:41;;;;;;;16.00;14.50;;;22.90;99.90;;;;;;5056651;28;20487;-56
2022/06/25 04:35:08;;;;;;;16.50;14.13;;;22.90;99.90;;;;;;5055638;28;20488;-51
2022/06/25 04:37:38;;;;;;;14.80;13.30;;;22.80;99.90;;;;;;5054451;28;20476;-50
2022/06/25 04:40:06;;;;;;;15.93;14.33;;;22.80;99.90;;;;;;5056102;28;20444;-47
2022/06/25 04:42:36;;;;;;;16.10;14.27;;;22.80;99.90;;;;;;5053693;28;20461;-53
2022/06/25 04:45:03;;;;;;;15.17;13.73;;;22.80;99.90;;;;;;5055341;28;20440;-56
2022/06/25 04:47:34;;;;;;;15.83;14.10;;;22.80;99.90;;;;;;5043241;28;20440;-58
2022/06/25 04:50:03;;;;;;;17.70;14.67;;;22.80;99.90;;;;;;5055858;28;20512;-45
2022/06/25 04:52:30;;;;;;;16.10;13.30;;;22.80;99.90;;;;;;5054089;28;20451;-53
2022/06/25 04:54:58;;;;;;;22.50;15.87;;;22.90;99.90;;;;;;5053634;28;20480;-59
2022/06/25 04:57:24;;;;;;;16.63;14.93;;;22.90;99.90;;;;;;5053297;28;20503;-52
2022/06/25 04:59:51;;;;;;;18.13;15.30;;;23.00;99.90;;;;;;5054997;28;20503;-53
2022/06/25 05:02:18;;;;;;;17.30;15.57;;;23.10;99.90;;;;;;5053963;28;20425;-52
2022/06/25 05:04:46;;;;;;;17.60;15.73;;;23.10;99.90;;;;;;5055080;28;20532;-56
2022/06/25 05:07:13;;;;;;;14.57;13.10;;;23.20;99.90;;;;;;5055413;28;20433;-52
2022/06/25 05:09:40;;;;;;;16.90;15.13;;;23.30;99.90;;;;;;5054726;28;20511;-56
2022/06/25 05:12:08;;;;;;;16.57;14.83;;;23.30;99.90;;;;;;5053764;28;20492;-52
2022/06/25 05:14:36;;;;;;;15.43;14.03;;;23.40;99.90;;;;;;5053954;28;20523;-51
2022/06/25 05:17:03;;;;;;;16.23;14.77;;;23.40;99.90;;;;;;5055175;28;20468;-57
2022/06/25 05:19:30;;;;;;;14.60;13.20;;;23.40;99.90;;;;;;5054597;28;20460;-59
2022/06/25 05:21:58;;;;;;;16.60;15.00;;;23.50;99.90;;;;;;5052150;28;20491;-50
2022/06/25 05:24:25;;;;;;;16.60;14.47;;;23.50;99.90;;;;;;5054937;28;20463;-50
2022/06/25 05:26:52;;;;;;;16.43;14.77;;;23.60;99.90;;;;;;5054069;28;20456;-59
2022/06/25 05:29:19;;;;;;;15.20;13.63;;;23.60;99.90;;;;;;5053475;28;20486;-50
2022/06/25 05:31:45;;;;;;;15.27;13.87;;;23.60;99.90;;;;;;5054910;28;21115;-55
2022/06/25 05:34:12;;;;;;;16.40;14.87;;;23.60;99.90;;;;;;5054340;28;20495;-48
2022/06/25 05:36:39;;;;;;;14.60;13.10;;;23.70;99.90;;;;;;5053069;28;20475;-56
2022/06/25 05:39:07;;;;;;;17.57;13.60;;;23.80;99.90;;;;;;5052450;28;20475;-57
2022/06/25 05:41:34;;;;;;;15.10;13.60;;;23.90;99.90;;;;;;5054870;28;20459;-52
2022/06/25 05:44:01;;;;;;;16.13;14.40;;;24.00;99.90;;;;;;5052613;28;20511;-49
2022/06/25 05:46:28;;;;;;;16.43;14.73;;;24.10;99.90;;;;;;5054154;28;20500;-52
2022/06/25 05:48:55;;;;;;;17.23;15.57;;;24.20;99.90;;;;;;5041829;28;20516;-53
2022/06/25 05:51:21;;;;;;;16.50;14.80;;;24.30;99.90;;;;;;5051668;28;20535;-47
2022/06/25 05:53:48;;;;;;;16.20;14.70;;;24.50;99.90;;;;;;5053069;28;20480;-51
2022/06/25 05:56:16;;;;;;;18.23;15.67;;;24.60;99.90;;;;;;5054414;28;20950;-50
2022/06/25 05:58:43;;;;;;;16.43;14.93;;;24.70;99.90;;;;;;5054462;28;20480;-48
2022/06/25 06:01:10;;;;;;;15.00;13.70;;;24.80;99.90;;;;;;5052078;28;20535;-56
2022/06/25 06:03:37;;;;;;;17.40;15.70;;;24.90;99.90;;;;;;5051957;28;20503;-49
2022/06/25 06:06:04;;;;;;;15.10;13.60;;;25.10;99.90;;;;;;5053439;28;20495;-58
2022/06/25 06:08:31;;;;;;;15.93;14.23;;;25.30;99.90;;;;;;5055100;28;20425;-57
2022/06/25 06:10:57;;;;;;;16.40;14.70;;;25.40;99.90;;;;;;5057982;28;20480;-57
2022/06/25 06:13:26;;;;;;;15.10;13.60;;;25.50;99.90;;;;;;5056795;28;20505;-58
2022/06/25 06:15:52;;;;;;;14.87;13.43;;;25.50;99.90;;;;;;5049670;28;20847;-60
2022/06/25 06:18:19;;;;;;;14.83;13.30;;;25.60;99.90;;;;;;5053634;28;20480;-51
2022/06/25 06:20:46;;;;;;;17.80;14.10;;;25.60;99.90;;;;;;5056536;28;20535;-54
2022/06/25 06:23:14;;;;;;;15.20;13.70;;;25.60;99.90;;;;;;5055320;28;20492;-51
2022/06/25 06:25:41;;;;;;;15.20;13.60;;;25.60;99.90;;;;;;5053279;28;20444;-61
2022/06/25 06:28:07;;;;;;;16.63;14.77;;;25.50;99.90;;;;;;5035500;28;20540;-58
2022/06/25 06:30:38;;;;;;;17.37;14.70;;;25.50;99.90;;;;;;5036210;28;20480;-62
2022/06/25 06:33:05;;;;;;;15.33;13.83;;;25.60;99.90;;;;;;5036482;28;20472;-59
2022/06/25 06:35:32;;;;;;;15.97;13.37;;;25.70;99.90;;;;;;5035780;28;20489;-53
2022/06/25 06:37:59;;;;;;;15.20;13.60;;;25.80;99.90;;;;;;5035834;28;20515;-61
2022/06/25 06:40:26;;;;;;;15.67;14.30;;;25.90;99.90;;;;;;5035935;28;20537;-61
2022/06/25 06:42:55;;;;;;;13.60;11.90;;;26.10;99.90;;;;;;5035098;28;20480;-56
2022/06/25 06:45:22;;;;;;;14.63;12.73;;;26.30;99.90;;;;;;5036042;28;20448;-42
2022/06/25 06:47:50;;;;;;;13.50;12.20;;;26.50;99.90;;;;;;5035217;28;20445;-60
2022/06/25 06:50:17;;;;;;;16.10;11.70;;;26.60;99.90;;;;;;5035432;28;20485;-53
2022/06/25 06:52:44;;;;;;;14.37;12.97;;;26.70;99.90;;;;;;5038613;28;20485;-50
2022/06/25 06:55:11;;;;;;;13.90;12.60;;;26.70;99.90;;;;;;5038338;28;20433;-56
2022/06/25 06:57:38;;;;;;;12.40;11.20;;;26.70;99.90;;;;;;5037425;28;20533;-62
2022/06/25 07:00:06;;;;;;;11.53;10.33;;;26.70;99.90;;;;;;5032985;28;20500;-49
2022/06/25 07:02:33;;;;;;;11.80;10.77;;;26.80;99.90;;;;;;5037983;28;20528;-53
2022/06/25 07:05:02;;;;;;;11.73;10.60;;;26.80;99.90;;;;;;5038019;28;20437;-57
2022/06/25 07:07:29;;;;;;;13.47;12.27;;;26.90;99.90;;;;;;5038329;28;20444;-55
2022/06/25 07:09:57;;;;;;;16.13;11.90;;;26.90;99.90;;;;;;5037602;28;20530;-57
2022/06/25 07:12:24;;;;;;;13.90;12.50;;;27.00;99.90;;;;;;5037719;28;20477;-53
2022/06/25 07:14:51;;;;;;;12.13;10.83;;;27.00;99.90;;;;;;5037899;28;20465;-51
2022/06/25 07:17:18;;;;;;;11.77;10.70;;;27.10;99.90;;;;;;5035243;28;20484;-51
2022/06/25 07:19:44;;;;;;;12.67;11.40;;;27.10;99.90;;;;;;5036631;28;20472;-61
2022/06/25 07:22:13;;;;;;;12.43;11.37;;;27.20;99.90;;;;;;5035174;28;20481;-53
2022/06/25 07:24:40;;;;;;;13.63;12.30;;;27.30;99.90;;;;;;5034555;28;20532;-54
2022/06/25 07:27:06;;;;;;;13.63;12.43;;;27.50;99.90;;;;;;5037348;28;20456;-56
2022/06/25 07:29:33;;;;;;;12.50;11.40;;;27.80;99.90;;;;;;5028206;28;20453;-61
2022/06/25 07:32:04;;;;;;;14.07;12.80;;;28.00;99.90;;;;;;5032598;28;20464;-56
2022/06/25 07:34:32;;;;;;;14.37;12.97;;;28.20;99.90;;;;;;5034930;28;20487;-54
2022/06/25 07:36:59;;;;;;;13.60;12.30;;;28.50;99.90;;;;;;5036343;28;20479;-48
2022/06/25 07:39:27;;;;;;;13.50;12.33;;;28.80;99.90;;;;;;5033079;28;20440;-53
2022/06/25 07:41:54;;;;;;;12.43;11.23;;;29.50;99.90;;;;;;5034885;28;20471;-61
2022/06/25 07:44:21;;;;;;;13.40;11.53;;;30.40;99.90;;;;;;5034374;28;20830;-56
2022/06/25 07:46:48;;;;;;;13.40;12.10;;;31.10;99.90;;;;;;5034567;28;20444;-53
2022/06/25 07:49:15;;;;;;;12.13;11.03;;;31.70;99.90;;;;;;5029324;28;20909;-58
2022/06/25 07:54:35;;;;;;;28.60;25.60;;;32.50;99.90;;;;;;5021424;28;20855;-54
2022/06/25 07:57:02;;;;;;;12.73;11.63;;;33.10;99.90;;;;;;5026082;28;20515;-57
2022/06/25 07:59:29;;;;;;;11.70;10.67;;;33.70;99.60;;;;;;5029275;28;20469;-51
2022/06/25 08:01:56;;;;;;;13.37;12.27;;;34.20;97.20;;;;;;5030519;28;20461;-55
2022/06/25 08:04:24;;;;;;;12.13;11.13;;;34.20;94.70;;;;;;5031354;28;20445;-51
2022/06/25 08:06:51;;;;;;;12.67;11.40;;;33.90;94.30;;;;;;5029923;28;20444;-52
2022/06/25 08:09:18;;;;;;;14.40;13.10;;;33.90;94.80;;;;;;5032791;28;20544;-58
2022/06/25 08:11:46;;;;;;;13.87;12.63;;;33.80;94.60;;;;;;5038789;28;20503;-45
2022/06/25 08:14:13;;;;;;;13.63;12.53;;;33.60;94.80;;;;;;5054331;28;20440;-51
2022/06/25 08:19:21;;;;;;;13.77;12.47;;;32.70;95.60;;;;;;5051845;28;20432;-63
2022/06/25 08:21:48;;;;;;;14.03;12.70;;;32.30;96.40;;;;;;5051002;28;20487;-52
2022/06/25 08:24:17;;;;;;;16.30;14.80;;;32.00;97.10;;;;;;5055743;28;20539;-48
2022/06/25 08:26:45;;;;;;;14.40;13.10;;;31.90;97.60;;;;;;5044212;28;20432;-61
2022/06/25 08:29:14;;;;;;;14.17;12.97;;;31.80;98.40;;;;;;5054999;28;20457;-53
2022/06/25 08:31:41;;;;;;;15.03;13.73;;;31.90;98.20;;;;;;5050924;28;20539;-56
2022/06/25 08:34:08;;;;;;;14.10;12.90;;;32.20;97.30;;;;;;5050485;28;20526;-58
2022/06/25 08:36:35;;;;;;;13.60;12.40;;;32.50;96.60;;;;;;5053424;28;20483;-62
2022/06/25 08:39:01;;;;;;;12.80;11.67;;;32.90;94.80;;;;;;5048941;28;20507;-63
2022/06/25 08:41:29;;;;;;;13.37;12.17;;;33.10;94.90;;;;;;5053205;28;20524;-61
2022/06/25 08:43:57;;;;;;;12.77;11.77;;;33.20;94.10;;;;;;5051707;28;20539;-56
2022/06/25 08:46:24;;;;;;;12.90;11.80;;;33.10;93.80;;;;;;5054507;28;20480;-50
2022/06/25 08:48:51;;;;;;;12.43;11.40;;;33.60;93.10;;;;;;5048676;28;20471;-63
2022/06/25 08:51:20;;;;;;;12.43;11.33;;;34.20;91.40;;;;;;5052783;28;20559;-58
2022/06/25 08:53:49;;;;;;;11.40;10.37;;;34.70;89.10;;;;;;5050548;28;20440;-61
2022/06/25 08:56:18;;;;;;;11.07;10.17;;;34.60;87.40;;;;;;5050197;28;20521;-60
2022/06/25 08:58:45;;;;;;;9.77;8.97;;;34.20;87.00;;;;;;5047794;28;20535;-61
2022/06/25 09:01:14;;;;;;;10.10;8.73;;;33.60;85.70;;;;;;5048278;28;20532;-61
2022/06/25 09:03:41;;;;;;;10.77;9.70;;;32.90;86.70;;;;;;5048915;28;20519;-63
2022/06/25 09:06:14;;;;;;;10.60;9.60;;;32.40;88.30;;;;;;5044463;28;20555;-63
2022/06/25 09:08:42;;;;;;;9.20;8.40;;;31.90;90.20;;;;;;5046743;28;20452;-62
2022/06/25 09:11:10;;;;;;;10.53;9.53;;;31.30;91.10;;;;;;5051615;28;20483;-52
2022/06/25 09:13:37;;;;;;;10.93;9.70;;;30.70;92.00;;;;;;5048929;28;20496;-55
2022/06/25 09:16:04;;;;;;;11.80;10.60;;;30.40;93.40;;;;;;5043185;28;20484;-59
2022/06/25 09:18:38;;;;;;;11.27;10.27;;;30.20;94.30;;;;;;5041666;28;20468;-63
2022/06/25 09:21:07;;;;;;;11.40;10.30;;;29.90;95.10;;;;;;5041044;28;20460;-64
2022/06/25 09:23:35;;;;;;;10.33;9.23;;;29.70;96.00;;;;;;5039287;28;20468;-60
2022/06/25 09:26:05;;;;;;;10.77;9.67;;;29.60;95.80;;;;;;5041019;28;20460;-64
2022/06/25 09:28:33;;;;;;;9.80;8.93;;;29.50;96.90;;;;;;5039619;28;20507;-63
2022/06/25 09:31:02;;;;;;;10.90;9.90;;;29.40;97.00;;;;;;5039666;28;20486;-62
2022/06/25 09:33:30;;;;;;;10.60;9.57;;;29.40;97.40;;;;;;5040565;28;20475;-62
2022/06/25 09:35:58;;;;;;;10.60;9.30;;;29.40;97.90;;;;;;5038908;28;20448;-60
2022/06/25 09:38:26;;;;;;;10.73;9.80;;;29.40;98.00;;;;;;5039602;28;20499;-58
2022/06/25 09:40:56;;;;;;;11.43;10.07;;;29.40;98.40;;;;;;5040341;28;20460;-63
2022/06/25 09:43:24;;;;;;;13.23;11.93;;;29.50;98.70;;;;;;5044456;28;20494;-57
2022/06/25 09:45:53;;;;;;;12.03;11.13;;;29.60;98.50;;;;;;5045239;28;20482;-63
2022/06/25 09:48:21;;;;;;;13.50;12.20;;;29.60;98.30;;;;;;5044818;28;20514;-59
2022/06/25 09:51:10;;;;;;;12.03;10.93;;;29.50;98.70;;;;;;5047776;28;20566;-44
2022/06/25 09:53:46;;;;;;;12.70;11.40;;;29.40;99.00;;;;;;5028269;28;20418;-60
2022/06/25 09:56:15;;;;;;;12.03;11.07;;;29.30;99.60;;;;;;5033899;28;20455;-59
2022/06/25 09:58:43;;;;;;;11.83;10.83;;;29.20;99.90;;;;;;5048547;28;20436;-56
2022/06/25 10:01:11;;;;;;;12.10;11.00;;;29.10;99.90;;;;;;5046439;28;20440;-56
2022/06/25 10:03:38;;;;;;;12.13;10.73;;;29.00;99.90;;;;;;5046915;28;20444;-55
2022/06/25 10:06:06;;;;;;;10.10;9.30;;;28.90;99.90;;;;;;5049378;28;20448;-47
2022/06/25 10:08:37;;;;;;;11.70;10.60;;;28.80;99.90;;;;;;5047231;28;20543;-54
2022/06/25 10:11:05;;;;;;;11.63;10.30;;;28.70;99.90;;;;;;5047120;28;20575;-54
2022/06/25 10:13:34;;;;;;;11.73;10.53;;;28.60;99.90;;;;;;5049311;28;20468;-59
2022/06/25 10:16:01;;;;;;;12.40;11.10;;;28.50;99.90;;;;;;5046160;28;20507;-57
2022/06/25 10:18:29;;;;;;;13.67;11.03;;;28.40;99.90;;;;;;5044141;28;20749;-57
2022/06/25 10:20:57;;;;;;;11.00;10.10;;;28.30;99.90;;;;;;5044176;28;20514;-60
2022/06/25 10:23:26;;;;;;;10.20;9.40;;;28.30;99.90;;;;;;5047391;28;20479;-51
2022/06/25 10:25:54;;;;;;;12.77;11.43;;;28.40;99.90;;;;;;5047317;28;20467;-59
2022/06/25 10:28:26;;;;;;;15.90;12.13;;;28.40;99.90;;;;;;5044903;28;20470;-54
2022/06/25 10:30:56;;;;;;;11.53;10.53;;;28.50;99.90;;;;;;5037101;28;20547;-60
2022/06/25 10:33:24;;;;;;;10.90;10.10;;;28.50;99.90;;;;;;5048631;28;20452;-55
2022/06/25 10:35:52;;;;;;;11.33;10.40;;;28.50;99.90;;;;;;5044955;28;20468;-59
2022/06/25 10:38:21;;;;;;;11.20;9.97;;;28.40;99.90;;;;;;5047215;28;20448;-59
2022/06/25 10:40:58;;;;;;;10.30;9.30;;;28.40;99.90;;;;;;5046448;28;20482;-60
2022/06/25 10:43:45;;;;;;;11.97;10.87;;;28.40;99.90;;;;;;5045996;28;20460;-57
2022/06/25 10:46:30;;;;;;;10.37;9.47;;;28.40;99.90;;;;;;5044466;28;20514;-60
2022/06/25 10:49:03;;;;;;;11.57;10.47;;;28.50;99.90;;;;;;5047096;28;20435;-59
2022/06/25 10:51:32;;;;;;;12.00;10.70;;;28.80;99.90;;;;;;5048595;28;20471;-57
2022/06/25 10:54:00;;;;;;;10.90;10.00;;;28.90;99.90;;;;;;5047197;28;20467;-60
2022/06/25 10:56:33;;;;;;;11.43;10.43;;;28.90;99.90;;;;;;5045624;28;20539;-54
2022/06/25 10:59:00;;;;;;;12.10;10.40;;;28.90;99.90;;;;;;5046135;28;20441;-55
2022/06/25 11:01:32;;;;;;;12.10;11.10;;;28.90;99.90;;;;;;5050327;28;20528;-57
2022/06/25 11:04:01;;;;;;;10.93;9.93;;;28.90;99.90;;;;;;5055416;28;20535;-46
2022/06/25 11:06:32;;;;;;;11.00;10.00;;;28.90;99.90;;;;;;5056545;28;20456;-49
2022/06/25 11:09:07;;;;;;;10.20;9.20;;;28.80;99.90;;;;;;5057940;28;20472;-56
2022/06/25 11:11:36;;;;;;;10.53;9.53;;;28.70;99.90;;;;;;5056386;28;20459;-53
2022/06/25 11:14:05;;;;;;;11.70;10.00;;;28.60;99.90;;;;;;5057206;28;20516;-51
2022/06/25 11:16:32;;;;;;;11.07;10.07;;;28.50;99.90;;;;;;5057278;28;20520;-56
2022/06/25 11:19:01;;;;;;;11.13;9.93;;;28.40;99.90;;;;;;5056800;28;20508;-47
2022/06/25 11:21:31;;;;;;;10.60;9.70;;;28.40;99.90;;;;;;5056857;28;20481;-51
2022/06/25 11:24:13;;;;;;;11.90;10.80;;;28.30;99.90;;;;;;5054361;28;20440;-60
2022/06/25 11:29:30;;;;;;;14.70;13.30;;;28.30;99.90;;;;;;5056004;28;20464;-57
2022/06/25 11:31:59;;;;;;;14.47;13.27;;;28.30;99.90;;;;;;5058198;28;20472;-48
2022/06/25 11:34:27;;;;;;;16.87;13.80;;;28.20;99.90;;;;;;5057907;28;20503;-55
2022/06/25 11:37:06;;;;;;;14.03;12.47;;;28.20;99.90;;;;;;5056901;28;20440;-48
2022/06/25 11:39:34;;;;;;;17.83;16.13;;;28.10;99.90;;;;;;5057116;28;20420;-51
2022/06/25 11:42:04;;;;;;;19.50;17.47;;;28.00;99.90;;;;;;5056585;28;20515;-53
2022/06/25 11:44:39;;;;;;;15.10;13.60;;;27.90;99.90;;;;;;5047327;28;20447;-47
2022/06/25 11:47:06;;;;;;;15.07;13.57;;;27.90;99.90;;;;;;5056413;28;20475;-52
2022/06/25 11:49:37;;;;;;;14.83;13.23;;;27.90;99.90;;;;;;5056256;28;20440;-44
2022/06/25 11:52:05;;;;;;;15.30;13.97;;;27.90;99.90;;;;;;5053446;28;20484;-55
2022/06/25 11:54:36;;;;;;;15.90;14.40;;;27.90;99.90;;;;;;5055921;28;20508;-55
2022/06/25 11:57:06;;;;;;;15.63;14.03;;;28.00;99.90;;;;;;5056753;28;20469;-51
2022/06/25 11:59:34;;;;;;;16.10;14.70;;;28.00;99.90;;;;;;5056698;28;20452;-57
2022/06/25 12:02:03;;;;;;;16.63;15.03;;;28.10;99.90;;;;;;5056819;28;20428;-51
2022/06/25 12:04:31;;;;;;;16.77;15.27;;;28.20;99.90;;;;;;5054168;28;20472;-59
2022/06/25 12:06:58;;;;;;;17.00;15.40;;;28.40;99.90;;;;;;5054884;28;20865;-47
2022/06/25 12:09:25;;;;;;;16.80;14.60;;;28.40;99.90;;;;;;5056319;28;20468;-54
2022/06/25 12:11:53;;;;;;;16.20;14.67;;;28.50;99.90;;;;;;5056164;28;20500;-54
2022/06/25 12:14:24;;;;;;;31.37;27.00;;;28.60;99.90;;;;;;5056919;28;20456;-53
2022/06/25 12:16:51;;;;;;;15.13;13.73;;;28.70;99.90;;;;;;5056858;28;20425;-54
2022/06/25 12:19:19;;;;;;;14.70;13.30;;;28.70;99.90;;;;;;5053946;28;20559;-60
2022/06/25 12:21:46;;;;;;;13.80;12.70;;;28.80;99.90;;;;;;5048733;28;20468;-51
2022/06/25 12:24:15;;;;;;;14.20;12.80;;;29.10;99.90;;;;;;5055979;28;20515;-46
2022/06/25 12:26:43;;;;;;;15.50;14.00;;;29.40;99.90;;;;;;5054462;28;20476;-55
2022/06/25 12:29:13;;;;;;;13.93;12.60;;;29.60;99.90;;;;;;5055864;28;20428;-57
2022/06/25 12:31:42;;;;;;;13.60;12.40;;;29.80;99.90;;;;;;5054998;28;20480;-53
2022/06/25 12:34:10;;;;;;;14.30;12.90;;;29.90;99.90;;;;;;5055078;28;20432;-55
2022/06/25 12:36:38;;;;;;;14.13;13.00;;;30.10;99.90;;;;;;5053695;28;20436;-58
2022/06/25 12:39:34;;;;;;;13.20;11.90;;;30.10;99.90;;;;;;5055749;28;20468;-53
2022/06/25 12:42:06;;;;;;;13.43;12.33;;;30.20;99.90;;;;;;5053763;28;20435;-53
2022/06/25 12:44:34;;;;;;;11.50;10.40;;;30.20;99.90;;;;;;5055256;28;20454;-56
2022/06/25 12:47:05;;;;;;;10.70;9.80;;;30.20;99.90;;;;;;5054812;28;20447;-53
2022/06/25 12:49:50;;;;;;;12.00;10.80;;;30.30;99.90;;;;;;5055895;28;20479;-51